Weather observations for the past three days for
Sherman/Denison, Grayson County Airport
Imperial (Metric)
Date Time (cdt) Wind (mph) Vis. (mi.) Weather Sky Cond. Temperature (ºF) Relative Humidity Wind Chill (°F) Heat Index (°F) Pressure Precipitation (in)
Air Dwpt 6 hour altimeter (in) sea level (mb) 1 hr 3 hr 6 hr
Max. Min.
01 15:50 E 7 10.00 Mostly Cloudy SCT075 BKN100 98.6 62.6 31% 100 29.97 0.0
01 14:50 Vrbl 6 10.00 Mostly Cloudy BKN070 98.6 64.4 33% 101 29.99 0.0
01 13:50 SE 9 10.00 Mostly Cloudy SCT070 SCT090 BKN100 95 64.4 36% 97 30.01 0.0
01 12:50 Vrbl 5 10.00 Partly Cloudy FEW070 SCT100 95 66.2 39% 98 30.04 0.0
01 11:50 S 7 10.00 Fair CLR 95 68 41% 100 30.06 0.0
01 10:50 SW 6 10.00 Fair CLR 91.4 68 46% 96 30.07 0.0
01 09:47 S 5 10.00 Fair CLR 89.6 69.8 52% 95 30.07 0.0
01 08:50 SE 7 10.00 Fair CLR 84.2 68 58% 87 30.07 0.0
01 07:50 S 8 10.00 Fair CLR 80.6 68 66% 83 30.05 0.0
01 06:50 S 6 10.00 Fair CLR 78.8 66.2 65% 81 30.03 0.0
01 06:35 S 7 10.00 Fair CLR 77.9 66.6 68% 80 30.03 0.0
01 06:15 S 5 10.00 Fair CLR 79.3 66.4 65% 81 30.03 0.0
01 05:55 S 8 10.00 Fair CLR 80.2 66.4 63% 82 30.03 0.0
01 05:35 S 7 10.00 Fair CLR 80.6 66.4 62% 83 30.03 0.0
01 05:15 S 8 10.00 Fair CLR 81 66.2 61% 83 30.03 0.0
01 04:55 SE 10 10.00 Fair CLR 81.3 65.8 59% 83 30.03 0.0
01 04:35 S 10 10.00 Fair CLR 81.9 65.8 58% 84 30.03 0.0
01 04:15 SE 12 10.00 Fair CLR 82.6 65.7 57% 85 30.03 0.0
01 03:55 SE 12 10.00 Fair CLR 83.1 65.3 55% 85 30.03 0.0
01 03:35 SE 12 10.00 Fair CLR 83.5 65.3 54% 85 30.03 0.0
01 03:15 SE 13 10.00 Fair CLR 84 65.1 53% 86 30.02 0.0
01 02:55 SE 12 10.00 Fair CLR 84.2 64.9 52% 86 30.02 0.0
01 02:35 SE 9 10.00 Fair CLR 84.6 64.9 52% 86 30.02 0.0
01 02:15 S 12 10.00 Fair CLR 85.1 64.9 51% 87 30.02 0.0
01 01:55 S 9 10.00 Fair CLR 85.3 64.4 50% 87 30.02 0.0
01 01:35 SE 12 10.00 Fair CLR 84.7 64 50% 86 30.02 0.0
01 01:15 SE 12 10.00 Fair CLR 85.1 63.5 48% 86 30.02 0.0
01 00:55 SE 13 10.00 Fair CLR 86.2 63 96.6 83.3 46% 87 30.01 0.0
01 00:35 SE 13 10.00 Fair CLR 86.5 62.4 45% 87 30 0.0
01 00:15 SE 13 10.00 Fair CLR 86.9 62.2 44% 87 30 0.0
31 23:55 SE 9 10.00 Fair CLR 86.9 61.5 43% 87 30 0.0
31 23:35 SE 8 10.00 Fair CLR 86.9 61.3 42% 87 30 0.0
31 23:15 SE 8 10.00 Fair CLR 86.2 61.3 43% 86 29.99 0.0
31 22:55 E 6 10.00 Fair CLR 86 61.5 44% 86 30 0.0
31 22:35 SE 5 10.00 Fair CLR 84.7 62.1 47% 85 29.99 0.0
31 22:15 SE 6 10.00 Fair CLR 88 61.3 41% 88 29.99 0.0
31 21:55 SE 6 10.00 Fair CLR 88.3 61 40% 88 29.98 0.0
31 21:35 SE 6 10.00 Fair CLR 88.9 60.6 39% 89 29.98 0.0
31 21:15 SE 7 10.00 Fair CLR 90 60.3 37% 90 29.97 0.0
31 20:55 SE 5 10.00 Fair CLR 89.2 60.1 38% 89 29.96 0.0
31 20:35 SE 5 10.00 Fair CLR 90.1 60.1 37% 90 29.96 0.0
31 20:15 S 6 10.00 Fair CLR 90.7 59.7 35% 90 29.96 0.0
31 19:55 S 7 10.00 Fair CLR 92.1 59.7 34% 92 29.95 0.0
31 19:35 S 7 10.00 Fair CLR 94.3 59.4 31% 94 29.95 0.0
31 19:15 S 7 10.00 Fair CLR 95.7 59.5 30% 95 29.95 0.0
31 18:50 S 6 10.00 Fair CLR 96.8 57.2 27% 96 29.95 0.0
31 17:50 SE 8 G 17 10.00 Fair CLR 96.8 55.4 25% 95 29.96 0.0
31 16:50 S 9 G 17 10.00 A Few Clouds FEW095 98.6 55.4 24% 97 29.96 0.0
31 15:50 S 13 G 17 10.00 A Few Clouds FEW100 100.4 57.2 24% 100 29.99 0.0
31 14:50 SE 12 G 17 10.00 Partly Cloudy SCT100 98.6 57.2 25% 98 30.01 0.0
31 12:50 S 12 G 22 10.00 A Few Clouds FEW095 96.8 60.8 30% 97 30.05 0.0
31 11:50 SW 12 10.00 Fair CLR 96.8 60.8 30% 97 30.06 0.0
31 10:50 S 14 10.00 Fair CLR 93.2 60.8 34% 93 30.07 0.0
31 09:50 S 13 10.00 A Few Clouds FEW095 89.6 64.4 43% 91 30.06 0.0
31 08:50 S 13 10.00 Fair CLR 86 68 55% 89 30.05 0.0
31 07:50 S 8 10.00 Fair CLR 78.8 66.2 65% 81 30.03 0.0
31 06:50 S 7 10.00 Fair CLR 77 64.4 65% 79 30 0.0
31 06:35 S 7 10.00 Fair CLR 76.6 64.8 67% 78 30 0.0
31 06:15 S 6 10.00 Fair CLR 75.6 64.4 68% 77 30 0.0
31 05:55 S 7 10.00 Fair CLR 78.3 64 62% 80 29.99 0.0
31 05:35 S 8 10.00 Fair CLR 79.3 63.9 59% 81 29.99 0.0
31 05:15 S 8 10.00 Fair CLR 78.4 63.7 61% 80 29.99 0.0
31 04:55 S 8 10.00 A Few Clouds FEW090 78.1 63.5 61% 80 29.98 0.0
31 04:35 S 8 10.00 A Few Clouds FEW090 78.6 63.7 60% 80 29.98 0.0
31 04:15 S 8 10.00 Partly Cloudy SCT090 80.8 63.5 56% 82 29.98 0.0
31 03:55 S 10 10.00 Partly Cloudy SCT090 82.8 62.8 51% 84 29.98 0.0
31 03:35 SE 9 10.00 Partly Cloudy SCT090 83.1 62.6 50% 84 29.97 0.0
31 03:15 S 6 10.00 Partly Cloudy SCT090 82.4 62.8 52% 83 29.97 0.0
31 02:55 S 7 10.00 A Few Clouds FEW095 81.3 62.6 53% 82 29.97 0.0
31 02:35 S 8 10.00 Fair CLR 81.5 62.6 53% 83 29.97 0.0
31 02:15 S 8 10.00 Fair CLR 81.5 62.2 52% 83 29.97 0.0
31 01:55 S 8 10.00 Fair CLR 83.1 62.1 49% 84 29.97 0.0
31 01:35 S 8 10.00 Fair CLR 83.8 61.9 48% 84 29.97 0.0
31 01:15 S 9 10.00 Fair CLR 84 61.7 47% 85 29.97 0.0
31 00:55 S 9 10.00 Fair CLR 85.3 61.5 96.8 85.3 45% 86 29.97 0.0
31 00:35 S 9 10.00 Fair CLR 85.6 61.3 44% 86 29.97 0.0
31 00:15 S 10 10.00 Fair CLR 86.2 61.2 43% 86 29.97 0.0
30 23:55 S 10 10.00 Fair CLR 86.9 61 42% 87 29.97 0.0
30 23:35 S 9 10.00 Fair CLR 86.5 60.8 42% 87 29.97 0.0
30 23:15 SE 9 10.00 Fair CLR 86.7 60.8 42% 87 29.97 0.0
30 22:55 SE 9 10.00 Fair CLR 87.1 60.4 41% 87 29.96 0.0
30 22:35 S 9 10.00 Fair CLR 87.8 60.1 39% 87 29.96 0.0
30 22:15 SE 8 10.00 Fair CLR 88 59.9 39% 88 29.96 0.0
30 21:55 S 6 10.00 Fair CLR 86.9 59.7 40% 87 29.96 0.0
30 21:35 S 7 10.00 Fair CLR 88.3 59.4 38% 88 29.95 0.0
30 21:15 S 7 10.00 Fair CLR 88.5 59 37% 88 29.94 0.0
30 20:55 S 6 10.00 Fair CLR 89.1 58.6 36% 88 29.94 0.0
30 20:35 S 7 10.00 Fair CLR 90 58.1 34% 89 29.93 0.0
30 20:15 S 8 10.00 Fair CLR 90.9 58.3 33% 90 29.93 0.0
30 19:55 S 7 10.00 Fair CLR 91 58.3 33% 90 29.93 0.0
30 19:35 S 7 10.00 Fair CLR 93.4 58.3 31% 92 29.92 0.0
30 19:15 S 9 10.00 Fair CLR 95.7 57.4 28% 95 29.92 0.0
30 18:50 SE 10 10.00 Fair CLR 98.6 55.4 24% 97 29.93 0.0
30 17:50 S 12 10.00 Fair CLR 96.8 59 28% 96 29.93 0.0
30 16:50 SE 12 10.00 Partly Cloudy SCT090 98.6 60.8 29% 99 29.93 0.0
30 15:50 S 9 G 17 10.00 Partly Cloudy SCT085 98.6 60.8 29% 99 29.95 0.0
30 13:50 S 16 G 22 10.00 Partly Cloudy SCT075 95 62.6 34% 96 29.99 0.0
30 12:50 S 17 G 23 10.00 A Few Clouds FEW070 98.6 64.4 33% 101 30.01 0.0
30 11:50 SW 13 10.00 Fair CLR 96.8 66.2 37% 100 30.04 0.0
30 10:50 SW 12 10.00 Fair CLR 93.2 68 44% 98 30.04 0.0
30 09:50 SW 12 10.00 Fair CLR 89.6 68 49% 93 30.04 0.0
30 08:50 S 8 10.00 Fair CLR 84.2 66.2 55% 87 30.05 0.0
30 07:50 S 10 10.00 Fair CLR 80.6 64.4 58% 82 30.03 0.0
30 06:50 S 9 10.00 Fair CLR 78.8 62.6 58% 80 30 0.0
30 06:35 S 12 10.00 Fair CLR 79.3 62.8 57% 81 30 0.0
30 06:15 SE 10 10.00 Fair CLR 79.7 62.6 56% 81 29.99 0.0
30 05:55 SE 10 10.00 Fair CLR 80.1 62.4 55% 81 30 0.0
30 05:35 S 12 10.00 Fair CLR 80.8 62.6 54% 82 30 0.0
30 05:15 S 12 10.00 Fair CLR 81.1 62.4 53% 82 29.99 0.0
30 04:55 S 14 10.00 Fair CLR 81.5 62.2 52% 83 29.99 0.0
30 04:35 SE 13 10.00 Fair CLR 81.7 61.9 51% 83 29.99 0.0
30 04:15 SE 14 10.00 Fair CLR 82 61.5 50% 83 29.99 0.0
30 03:55 SE 16 10.00 Fair CLR 82.8 61.3 48% 83 29.98 0.0
30 03:35 SE 13 10.00 Fair CLR 82.9 61.2 48% 83 29.99 0.0
30 03:15 SE 14 10.00 Fair CLR 83.3 61 47% 84 29.99 0.0
30 02:55 SE 14 10.00 Fair CLR 84.2 60.6 45% 84 30 0.0
30 02:35 SE 14 10.00 Fair CLR 84.2 60.6 45% 84 30 0.0
30 02:15 SE 14 10.00 Fair CLR 84.7 60.4 44% 85 30 0.0
30 01:55 SE 14 10.00 Fair CLR 85.5 60.4 43% 85 30 0.0
30 01:35 SE 14 10.00 Fair CLR 85.6 60.6 43% 86 30 0.0
30 01:15 SE 12 10.00 Fair CLR 85.8 60.3 42% 86 30 0.0
30 00:55 SE 12 10.00 Fair CLR 86.2 60.4 97.5 86 42% 86 30 0.0
30 00:35 SE 14 10.00 Fair CLR 86.4 59.9 41% 86 30 0.0
30 00:15 SE 12 10.00 Fair CLR 86.7 59.4 40% 86 30 0.0
29 23:55 SE 15 10.00 Fair CLR 87.8 58.6 37% 87 30 0.0
29 23:35 SE 13 10.00 Fair CLR 88.2 58.6 37% 87 30 0.0
29 23:15 SE 9 10.00 Fair CLR 87.1 60.1 40% 87 29.99 0.0
29 22:55 SE 9 10.00 Fair CLR 88.3 60.3 39% 88 29.98 0.0
29 22:35 SE 9 10.00 Fair CLR 88.5 60.4 39% 88 29.98 0.0
29 22:15 SE 9 10.00 Fair CLR 89.1 60.1 38% 89 29.98 0.0
29 21:55 SE 8 10.00 Fair CLR 90 60.1 37% 90 29.98 0.0
29 21:35 SE 8 10.00 Fair CLR 90.1 60.4 37% 90 29.97 0.0
29 21:15 SE 8 10.00 Fair CLR 90 61 38% 90 29.96 0.0
29 20:55 SE 7 10.00 Fair CLR 90.5 60.8 37% 90 29.95 0.0
29 20:35 SE 7 10.00 Fair CLR 91 59.9 35% 91 29.95 0.0
29 20:15 SE 8 10.00 Fair CLR 91.8 58.6 33% 91 29.94 0.0
29 19:55 S 8 9.00 Fair CLR 91.8 58.5 33% 91 29.95 0.0
29 19:35 S 8 9.00 Fair CLR 94.3 58.3 30% 93 29.95 0.0
29 19:15 S 10 9.00 Fair CLR 96.6 59.2 29% 96 29.95 0.0
29 18:50 S 12 10.00 Fair CLR 96.8 59 28% 96 29.95 0.0
29 17:50 S 12 10.00 Fair CLR 98.6 57.2 25% 98 29.96 0.0
29 16:50 S 9 G 16 10.00 Fair CLR 100.4 60.8 27% 101 29.97 0.0
Date Time (cdt) Wind (mph) Vis. (mi.) Weather Sky Cond. Air Dwpt Max. Min. Relative Humidity Wind Chill (°F) Heat Index (°F) altimeter (in) sea level (mb) 1 hr 3 hr 6 hr
6 hour
Temperature (ºF) Pressure Precipitation (in)